sensor_id;sensor_type;location;lat;lon;timestamp;P1;durP1;ratioP1;P2;durP2;ratioP2
33268;SDS011;19640;50.944;5.260;2023-08-24T00:00:40;9.20;;;4.30;;
33268;SDS011;19640;50.944;5.260;2023-08-24T00:03:06;6.45;;;3.38;;
33268;SDS011;19640;50.944;5.260;2023-08-24T00:05:36;9.50;;;4.65;;
33268;SDS011;19640;50.944;5.260;2023-08-24T00:08:11;6.35;;;3.78;;
33268;SDS011;19640;50.944;5.260;2023-08-24T00:10:37;6.40;;;3.58;;
33268;SDS011;19640;50.944;5.260;2023-08-24T00:13:03;4.38;;;3.97;;
33268;SDS011;19640;50.944;5.260;2023-08-24T00:15:29;7.40;;;4.53;;
33268;SDS011;19640;50.944;5.260;2023-08-24T00:17:55;6.88;;;4.95;;
33268;SDS011;19640;50.944;5.260;2023-08-24T00:20:21;7.57;;;4.30;;
33268;SDS011;19640;50.944;5.260;2023-08-24T00:22:48;7.22;;;5.53;;
33268;SDS011;19640;50.944;5.260;2023-08-24T00:25:13;9.35;;;5.75;;
33268;SDS011;19640;50.944;5.260;2023-08-24T00:27:40;8.57;;;5.68;;
33268;SDS011;19640;50.944;5.260;2023-08-24T00:30:06;8.23;;;6.13;;
33268;SDS011;19640;50.944;5.260;2023-08-24T00:32:33;10.52;;;6.55;;
33268;SDS011;19640;50.944;5.260;2023-08-24T00:35:03;8.13;;;6.22;;
33268;SDS011;19640;50.944;5.260;2023-08-24T00:37:31;7.28;;;6.28;;
33268;SDS011;19640;50.944;5.260;2023-08-24T00:39:59;8.90;;;7.32;;
33268;SDS011;19640;50.944;5.260;2023-08-24T00:42:28;8.88;;;6.40;;
33268;SDS011;19640;50.944;5.260;2023-08-24T00:44:54;7.28;;;6.57;;
33268;SDS011;19640;50.944;5.260;2023-08-24T00:47:19;10.52;;;6.85;;
33268;SDS011;19640;50.944;5.260;2023-08-24T00:49:45;7.95;;;6.78;;
33268;SDS011;19640;50.944;5.260;2023-08-24T00:52:11;8.43;;;6.53;;
33268;SDS011;19640;50.944;5.260;2023-08-24T00:54:37;10.57;;;6.63;;
33268;SDS011;19640;50.944;5.260;2023-08-24T00:57:05;9.43;;;7.32;;
33268;SDS011;19640;50.944;5.260;2023-08-24T00:59:32;7.55;;;5.97;;
33268;SDS011;19640;50.944;5.260;2023-08-24T01:01:59;9.25;;;6.50;;
33268;SDS011;19640;50.944;5.260;2023-08-24T01:04:25;7.43;;;6.72;;
33268;SDS011;19640;50.944;5.260;2023-08-24T01:06:51;7.45;;;6.75;;
33268;SDS011;19640;50.944;5.260;2023-08-24T01:09:17;8.85;;;6.25;;
33268;SDS011;19640;50.944;5.260;2023-08-24T01:17:18;8.38;;;7.10;;
33268;SDS011;19640;50.944;5.260;2023-08-24T01:19:48;9.15;;;8.07;;
33268;SDS011;19640;50.944;5.260;2023-08-24T01:22:20;10.82;;;6.80;;
33268;SDS011;19640;50.944;5.260;2023-08-24T01:27:29;7.88;;;7.07;;
33268;SDS011;19640;50.944;5.260;2023-08-24T01:29:59;10.50;;;7.72;;
33268;SDS011;19640;50.944;5.260;2023-08-24T01:32:29;9.88;;;8.23;;
33268;SDS011;19640;50.944;5.260;2023-08-24T01:34:56;10.43;;;7.97;;
33268;SDS011;19640;50.944;5.260;2023-08-24T01:37:22;9.10;;;8.13;;
33268;SDS011;19640;50.944;5.260;2023-08-24T01:39:58;9.32;;;7.55;;
33268;SDS011;19640;50.944;5.260;2023-08-24T01:42:40;9.38;;;7.05;;
33268;SDS011;19640;50.944;5.260;2023-08-24T01:45:07;8.10;;;6.65;;
33268;SDS011;19640;50.944;5.260;2023-08-24T01:47:35;7.30;;;6.60;;
33268;SDS011;19640;50.944;5.260;2023-08-24T01:50:02;10.25;;;7.05;;
33268;SDS011;19640;50.944;5.260;2023-08-24T01:52:28;7.07;;;6.15;;
33268;SDS011;19640;50.944;5.260;2023-08-24T01:54:55;13.13;;;7.40;;
33268;SDS011;19640;50.944;5.260;2023-08-24T01:57:20;7.80;;;7.05;;
33268;SDS011;19640;50.944;5.260;2023-08-24T01:59:46;11.88;;;7.93;;
33268;SDS011;19640;50.944;5.260;2023-08-24T02:02:12;11.23;;;7.15;;
33268;SDS011;19640;50.944;5.260;2023-08-24T02:04:37;8.98;;;7.68;;
33268;SDS011;19640;50.944;5.260;2023-08-24T02:07:03;7.32;;;6.63;;
33268;SDS011;19640;50.944;5.260;2023-08-24T02:09:29;13.07;;;7.28;;
33268;SDS011;19640;50.944;5.260;2023-08-24T02:11:56;10.05;;;7.68;;
33268;SDS011;19640;50.944;5.260;2023-08-24T02:14:21;7.60;;;6.90;;
33268;SDS011;19640;50.944;5.260;2023-08-24T02:16:47;9.52;;;6.95;;
33268;SDS011;19640;50.944;5.260;2023-08-24T02:19:13;7.80;;;6.57;;
33268;SDS011;19640;50.944;5.260;2023-08-24T02:21:39;7.20;;;6.50;;
33268;SDS011;19640;50.944;5.260;2023-08-24T02:24:04;8.38;;;7.68;;
33268;SDS011;19640;50.944;5.260;2023-08-24T02:26:31;12.88;;;7.50;;
33268;SDS011;19640;50.944;5.260;2023-08-24T02:28:57;7.55;;;6.45;;
33268;SDS011;19640;50.944;5.260;2023-08-24T02:31:24;9.85;;;7.00;;
33268;SDS011;19640;50.944;5.260;2023-08-24T02:33:50;7.90;;;7.10;;
33268;SDS011;19640;50.944;5.260;2023-08-24T02:36:15;7.25;;;6.30;;
33268;SDS011;19640;50.944;5.260;2023-08-24T02:38:42;5.88;;;5.38;;
33268;SDS011;19640;50.944;5.260;2023-08-24T02:41:07;6.63;;;5.70;;
33268;SDS011;19640;50.944;5.260;2023-08-24T02:43:34;10.05;;;5.45;;
33268;SDS011;19640;50.944;5.260;2023-08-24T02:46:00;7.82;;;5.70;;
33268;SDS011;19640;50.944;5.260;2023-08-24T02:48:28;9.27;;;6.72;;
33268;SDS011;19640;50.944;5.260;2023-08-24T02:50:54;7.22;;;5.78;;
33268;SDS011;19640;50.944;5.260;2023-08-24T02:53:21;8.35;;;6.28;;
33268;SDS011;19640;50.944;5.260;2023-08-24T02:55:47;9.90;;;6.40;;
33268;SDS011;19640;50.944;5.260;2023-08-24T02:58:13;6.85;;;6.13;;
33268;SDS011;19640;50.944;5.260;2023-08-24T03:00:38;10.68;;;5.95;;
33268;SDS011;19640;50.944;5.260;2023-08-24T03:03:04;10.73;;;7.50;;
33268;SDS011;19640;50.944;5.260;2023-08-24T03:05:31;8.02;;;7.30;;
33268;SDS011;19640;50.944;5.260;2023-08-24T03:07:57;10.30;;;9.32;;
33268;SDS011;19640;50.944;5.260;2023-08-24T03:10:23;13.25;;;9.43;;
33268;SDS011;19640;50.944;5.260;2023-08-24T03:12:49;10.25;;;9.18;;
33268;SDS011;19640;50.944;5.260;2023-08-24T03:15:15;10.95;;;8.35;;
33268;SDS011;19640;50.944;5.260;2023-08-24T03:17:41;9.52;;;8.50;;
33268;SDS011;19640;50.944;5.260;2023-08-24T03:20:07;9.50;;;8.43;;
33268;SDS011;19640;50.944;5.260;2023-08-24T03:22:34;9.68;;;8.60;;
33268;SDS011;19640;50.944;5.260;2023-08-24T03:24:59;10.57;;;8.98;;
33268;SDS011;19640;50.944;5.260;2023-08-24T03:27:25;9.32;;;8.43;;
33268;SDS011;19640;50.944;5.260;2023-08-24T03:29:54;10.68;;;8.32;;
33268;SDS011;19640;50.944;5.260;2023-08-24T03:32:19;10.15;;;8.48;;
33268;SDS011;19640;50.944;5.260;2023-08-24T03:34:45;10.38;;;8.73;;
33268;SDS011;19640;50.944;5.260;2023-08-24T03:37:11;10.40;;;8.18;;
33268;SDS011;19640;50.944;5.260;2023-08-24T03:39:38;9.82;;;8.85;;
33268;SDS011;19640;50.944;5.260;2023-08-24T03:42:04;10.27;;;9.18;;
33268;SDS011;19640;50.944;5.260;2023-08-24T03:44:30;12.45;;;9.23;;
33268;SDS011;19640;50.944;5.260;2023-08-24T03:46:56;19.92;;;9.18;;
33268;SDS011;19640;50.944;5.260;2023-08-24T03:49:21;17.48;;;9.05;;
33268;SDS011;19640;50.944;5.260;2023-08-24T03:51:47;10.45;;;9.45;;
33268;SDS011;19640;50.944;5.260;2023-08-24T03:54:13;9.93;;;8.63;;
33268;SDS011;19640;50.944;5.260;2023-08-24T03:56:39;9.55;;;8.20;;
33268;SDS011;19640;50.944;5.260;2023-08-24T03:59:04;9.18;;;7.57;;
33268;SDS011;19640;50.944;5.260;2023-08-24T04:01:30;9.90;;;7.32;;
33268;SDS011;19640;50.944;5.260;2023-08-24T04:03:56;9.50;;;7.00;;
33268;SDS011;19640;50.944;5.260;2023-08-24T04:06:22;12.23;;;6.93;;
33268;SDS011;19640;50.944;5.260;2023-08-24T04:08:49;8.10;;;7.13;;
33268;SDS011;19640;50.944;5.260;2023-08-24T04:11:14;10.05;;;7.13;;
33268;SDS011;19640;50.944;5.260;2023-08-24T04:13:40;9.32;;;7.30;;
33268;SDS011;19640;50.944;5.260;2023-08-24T04:16:06;7.80;;;6.38;;
33268;SDS011;19640;50.944;5.260;2023-08-24T04:18:32;11.57;;;6.50;;
33268;SDS011;19640;50.944;5.260;2023-08-24T04:20:57;8.20;;;6.03;;
33268;SDS011;19640;50.944;5.260;2023-08-24T04:23:23;7.25;;;6.47;;
33268;SDS011;19640;50.944;5.260;2023-08-24T04:25:53;9.63;;;6.90;;
33268;SDS011;19640;50.944;5.260;2023-08-24T04:28:19;8.55;;;6.40;;
33268;SDS011;19640;50.944;5.260;2023-08-24T04:30:56;12.45;;;7.53;;
33268;SDS011;19640;50.944;5.260;2023-08-24T04:33:22;8.20;;;6.20;;
33268;SDS011;19640;50.944;5.260;2023-08-24T04:35:48;7.88;;;6.65;;
33268;SDS011;19640;50.944;5.260;2023-08-24T04:38:15;11.65;;;6.28;;
33268;SDS011;19640;50.944;5.260;2023-08-24T04:40:48;13.75;;;6.18;;
33268;SDS011;19640;50.944;5.260;2023-08-24T04:43:18;10.98;;;6.63;;
33268;SDS011;19640;50.944;5.260;2023-08-24T04:45:46;8.98;;;6.93;;
33268;SDS011;19640;50.944;5.260;2023-08-24T04:48:17;9.60;;;6.50;;
33268;SDS011;19640;50.944;5.260;2023-08-24T04:50:47;9.68;;;7.10;;
33268;SDS011;19640;50.944;5.260;2023-08-24T04:53:14;8.48;;;6.72;;
33268;SDS011;19640;50.944;5.260;2023-08-24T04:55:41;8.10;;;6.38;;
33268;SDS011;19640;50.944;5.260;2023-08-24T04:58:08;10.07;;;7.55;;
33268;SDS011;19640;50.944;5.260;2023-08-24T05:00:34;10.60;;;7.43;;
33268;SDS011;19640;50.944;5.260;2023-08-24T05:03:03;7.40;;;6.10;;
33268;SDS011;19640;50.944;5.260;2023-08-24T05:05:30;7.55;;;6.38;;
33268;SDS011;19640;50.944;5.260;2023-08-24T05:07:59;7.82;;;6.28;;
33268;SDS011;19640;50.944;5.260;2023-08-24T05:10:29;7.03;;;6.22;;
33268;SDS011;19640;50.944;5.260;2023-08-24T05:12:56;10.48;;;6.30;;
33268;SDS011;19640;50.944;5.260;2023-08-24T05:15:22;8.77;;;5.63;;
33268;SDS011;19640;50.944;5.260;2023-08-24T05:17:48;7.75;;;6.22;;
33268;SDS011;19640;50.944;5.260;2023-08-24T05:20:14;10.88;;;7.00;;
33268;SDS011;19640;50.944;5.260;2023-08-24T05:22:39;7.38;;;6.68;;
33268;SDS011;19640;50.944;5.260;2023-08-24T05:25:05;8.00;;;6.40;;
33268;SDS011;19640;50.944;5.260;2023-08-24T05:27:32;10.13;;;5.95;;
33268;SDS011;19640;50.944;5.260;2023-08-24T05:29:57;7.03;;;6.22;;
33268;SDS011;19640;50.944;5.260;2023-08-24T05:32:23;7.93;;;5.93;;
33268;SDS011;19640;50.944;5.260;2023-08-24T05:34:49;6.30;;;5.68;;
33268;SDS011;19640;50.944;5.260;2023-08-24T05:37:15;6.30;;;5.70;;
33268;SDS011;19640;50.944;5.260;2023-08-24T05:39:41;9.18;;;6.15;;
33268;SDS011;19640;50.944;5.260;2023-08-24T05:42:08;7.50;;;5.97;;
33268;SDS011;19640;50.944;5.260;2023-08-24T05:44:34;14.98;;;6.10;;
33268;SDS011;19640;50.944;5.260;2023-08-24T05:47:00;9.52;;;6.93;;
33268;SDS011;19640;50.944;5.260;2023-08-24T05:49:26;6.88;;;6.15;;
33268;SDS011;19640;50.944;5.260;2023-08-24T05:51:52;7.85;;;7.15;;
33268;SDS011;19640;50.944;5.260;2023-08-24T05:54:18;12.77;;;7.20;;
33268;SDS011;19640;50.944;5.260;2023-08-24T05:56:47;9.32;;;7.65;;
33268;SDS011;19640;50.944;5.260;2023-08-24T05:59:13;9.40;;;7.25;;
33268;SDS011;19640;50.944;5.260;2023-08-24T06:01:39;9.85;;;7.82;;
33268;SDS011;19640;50.944;5.260;2023-08-24T06:04:06;8.93;;;8.00;;
33268;SDS011;19640;50.944;5.260;2023-08-24T06:06:32;13.77;;;7.70;;
33268;SDS011;19640;50.944;5.260;2023-08-24T06:08:58;12.52;;;8.40;;
33268;SDS011;19640;50.944;5.260;2023-08-24T06:11:24;10.88;;;7.32;;
33268;SDS011;19640;50.944;5.260;2023-08-24T06:13:50;11.27;;;7.85;;
33268;SDS011;19640;50.944;5.260;2023-08-24T06:16:18;9.10;;;7.65;;
33268;SDS011;19640;50.944;5.260;2023-08-24T06:18:44;10.05;;;7.75;;
33268;SDS011;19640;50.944;5.260;2023-08-24T06:21:11;10.60;;;7.85;;
33268;SDS011;19640;50.944;5.260;2023-08-24T06:23:36;14.50;;;7.90;;
33268;SDS011;19640;50.944;5.260;2023-08-24T06:26:03;10.73;;;7.40;;
33268;SDS011;19640;50.944;5.260;2023-08-24T06:28:29;11.85;;;7.80;;
33268;SDS011;19640;50.944;5.260;2023-08-24T06:30:55;11.77;;;7.45;;
33268;SDS011;19640;50.944;5.260;2023-08-24T06:33:22;11.10;;;6.82;;
33268;SDS011;19640;50.944;5.260;2023-08-24T06:35:53;9.40;;;6.93;;
33268;SDS011;19640;50.944;5.260;2023-08-24T06:38:19;9.75;;;6.25;;
33268;SDS011;19640;50.944;5.260;2023-08-24T06:40:45;7.88;;;6.80;;
33268;SDS011;19640;50.944;5.260;2023-08-24T06:43:10;13.15;;;6.53;;
33268;SDS011;19640;50.944;5.260;2023-08-24T06:45:36;11.05;;;6.05;;
33268;SDS011;19640;50.944;5.260;2023-08-24T06:48:02;8.48;;;5.72;;
33268;SDS011;19640;50.944;5.260;2023-08-24T06:50:28;6.78;;;6.03;;
33268;SDS011;19640;50.944;5.260;2023-08-24T06:52:53;7.70;;;5.75;;
33268;SDS011;19640;50.944;5.260;2023-08-24T06:55:19;8.27;;;6.05;;
33268;SDS011;19640;50.944;5.260;2023-08-24T06:57:47;7.53;;;5.28;;
33268;SDS011;19640;50.944;5.260;2023-08-24T07:00:14;10.60;;;5.20;;
33268;SDS011;19640;50.944;5.260;2023-08-24T07:02:40;9.10;;;5.63;;
33268;SDS011;19640;50.944;5.260;2023-08-24T07:05:06;11.00;;;5.45;;
33268;SDS011;19640;50.944;5.260;2023-08-24T07:07:34;7.13;;;5.28;;
33268;SDS011;19640;50.944;5.260;2023-08-24T07:10:00;10.07;;;4.95;;
33268;SDS011;19640;50.944;5.260;2023-08-24T07:12:25;7.28;;;5.07;;
33268;SDS011;19640;50.944;5.260;2023-08-24T07:14:51;6.53;;;4.78;;
33268;SDS011;19640;50.944;5.260;2023-08-24T07:17:17;7.80;;;4.90;;
33268;SDS011;19640;50.944;5.260;2023-08-24T07:19:43;9.63;;;4.57;;
33268;SDS011;19640;50.944;5.260;2023-08-24T07:22:08;8.77;;;3.92;;
33268;SDS011;19640;50.944;5.260;2023-08-24T07:24:34;9.32;;;3.92;;
33268;SDS011;19640;50.944;5.260;2023-08-24T07:27:01;7.00;;;3.80;;
33268;SDS011;19640;50.944;5.260;2023-08-24T07:29:28;5.57;;;3.70;;
33268;SDS011;19640;50.944;5.260;2023-08-24T07:31:54;5.68;;;3.80;;
33268;SDS011;19640;50.944;5.260;2023-08-24T07:34:20;5.95;;;4.10;;
33268;SDS011;19640;50.944;5.260;2023-08-24T07:36:47;6.45;;;3.50;;
33268;SDS011;19640;50.944;5.260;2023-08-24T07:39:14;8.07;;;3.20;;
33268;SDS011;19640;50.944;5.260;2023-08-24T07:41:44;8.63;;;3.10;;
33268;SDS011;19640;50.944;5.260;2023-08-24T07:44:10;5.18;;;2.58;;
33268;SDS011;19640;50.944;5.260;2023-08-24T07:46:36;5.28;;;3.10;;
33268;SDS011;19640;50.944;5.260;2023-08-24T07:49:03;4.43;;;2.67;;
33268;SDS011;19640;50.944;5.260;2023-08-24T07:51:29;5.05;;;2.60;;
33268;SDS011;19640;50.944;5.260;2023-08-24T07:53:54;4.53;;;2.78;;
33268;SDS011;19640;50.944;5.260;2023-08-24T07:56:20;4.13;;;2.45;;
33268;SDS011;19640;50.944;5.260;2023-08-24T07:58:48;5.70;;;2.97;;
33268;SDS011;19640;50.944;5.260;2023-08-24T08:01:13;5.82;;;2.20;;
33268;SDS011;19640;50.944;5.260;2023-08-24T08:03:39;4.15;;;2.30;;
33268;SDS011;19640;50.944;5.260;2023-08-24T08:06:04;4.97;;;2.53;;
33268;SDS011;19640;50.944;5.260;2023-08-24T08:08:30;3.67;;;2.65;;
33268;SDS011;19640;50.944;5.260;2023-08-24T08:10:59;4.50;;;2.13;;
33268;SDS011;19640;50.944;5.260;2023-08-24T08:13:26;4.95;;;2.10;;
33268;SDS011;19640;50.944;5.260;2023-08-24T08:15:53;4.32;;;2.47;;
33268;SDS011;19640;50.944;5.260;2023-08-24T08:18:19;2.70;;;2.35;;
33268;SDS011;19640;50.944;5.260;2023-08-24T08:20:45;3.85;;;2.28;;
33268;SDS011;19640;50.944;5.260;2023-08-24T08:23:10;2.88;;;2.38;;
33268;SDS011;19640;50.944;5.260;2023-08-24T08:25:36;5.82;;;2.60;;
33268;SDS011;19640;50.944;5.260;2023-08-24T08:28:03;2.85;;;2.25;;
33268;SDS011;19640;50.944;5.260;2023-08-24T08:30:28;4.38;;;2.20;;
33268;SDS011;19640;50.944;5.260;2023-08-24T08:32:54;3.10;;;2.13;;
33268;SDS011;19640;50.944;5.260;2023-08-24T08:35:21;4.20;;;2.05;;
33268;SDS011;19640;50.944;5.260;2023-08-24T08:37:47;3.50;;;2.03;;
33268;SDS011;19640;50.944;5.260;2023-08-24T08:40:15;3.90;;;2.25;;
33268;SDS011;19640;50.944;5.260;2023-08-24T08:42:42;3.10;;;1.95;;
33268;SDS011;19640;50.944;5.260;2023-08-24T08:45:08;5.90;;;2.38;;
33268;SDS011;19640;50.944;5.260;2023-08-24T08:47:35;3.00;;;2.17;;
33268;SDS011;19640;50.944;5.260;2023-08-24T08:50:01;5.20;;;2.10;;
33268;SDS011;19640;50.944;5.260;2023-08-24T08:52:29;4.03;;;1.95;;
33268;SDS011;19640;50.944;5.260;2023-08-24T08:54:55;3.92;;;2.38;;
33268;SDS011;19640;50.944;5.260;2023-08-24T08:57:21;4.60;;;2.13;;
33268;SDS011;19640;50.944;5.260;2023-08-24T08:59:49;4.00;;;2.63;;
33268;SDS011;19640;50.944;5.260;2023-08-24T09:02:17;5.68;;;2.30;;
33268;SDS011;19640;50.944;5.260;2023-08-24T09:04:45;3.25;;;2.03;;
33268;SDS011;19640;50.944;5.260;2023-08-24T09:07:15;4.18;;;3.03;;
33268;SDS011;19640;50.944;5.260;2023-08-24T09:09:40;2.97;;;2.22;;
33268;SDS011;19640;50.944;5.260;2023-08-24T09:12:07;5.45;;;2.40;;
33268;SDS011;19640;50.944;5.260;2023-08-24T09:14:33;4.25;;;2.00;;
33268;SDS011;19640;50.944;5.260;2023-08-24T09:16:59;6.93;;;2.22;;
33268;SDS011;19640;50.944;5.260;2023-08-24T09:19:29;4.57;;;2.22;;
33268;SDS011;19640;50.944;5.260;2023-08-24T09:21:56;3.83;;;2.00;;
33268;SDS011;19640;50.944;5.260;2023-08-24T09:24:35;2.53;;;2.10;;
33268;SDS011;19640;50.944;5.260;2023-08-24T09:27:14;4.20;;;2.28;;
33268;SDS011;19640;50.944;5.260;2023-08-24T09:29:42;4.78;;;2.65;;
33268;SDS011;19640;50.944;5.260;2023-08-24T09:32:07;5.57;;;2.35;;
33268;SDS011;19640;50.944;5.260;2023-08-24T09:34:35;3.80;;;2.30;;
33268;SDS011;19640;50.944;5.260;2023-08-24T09:37:01;4.05;;;2.35;;
33268;SDS011;19640;50.944;5.260;2023-08-24T09:39:29;4.07;;;2.30;;
33268;SDS011;19640;50.944;5.260;2023-08-24T09:41:55;6.40;;;2.80;;
33268;SDS011;19640;50.944;5.260;2023-08-24T09:44:28;4.18;;;2.65;;
33268;SDS011;19640;50.944;5.260;2023-08-24T09:46:54;5.63;;;2.63;;
33268;SDS011;19640;50.944;5.260;2023-08-24T09:49:20;4.82;;;2.30;;
33268;SDS011;19640;50.944;5.260;2023-08-24T09:51:46;3.78;;;2.33;;
33268;SDS011;19640;50.944;5.260;2023-08-24T09:54:13;7.22;;;2.85;;
33268;SDS011;19640;50.944;5.260;2023-08-24T09:56:41;3.50;;;2.60;;
33268;SDS011;19640;50.944;5.260;2023-08-24T09:59:12;3.35;;;2.47;;
33268;SDS011;19640;50.944;5.260;2023-08-24T10:01:42;3.40;;;2.08;;
33268;SDS011;19640;50.944;5.260;2023-08-24T10:04:09;3.80;;;2.28;;
33268;SDS011;19640;50.944;5.260;2023-08-24T10:06:37;4.22;;;2.05;;
33268;SDS011;19640;50.944;5.260;2023-08-24T10:09:06;5.57;;;2.53;;
33268;SDS011;19640;50.944;5.260;2023-08-24T10:11:35;4.47;;;2.90;;
33268;SDS011;19640;50.944;5.260;2023-08-24T10:16:59;5.18;;;3.45;;
33268;SDS011;19640;50.944;5.260;2023-08-24T10:19:25;4.38;;;3.47;;
33268;SDS011;19640;50.944;5.260;2023-08-24T10:21:53;6.85;;;3.03;;
33268;SDS011;19640;50.944;5.260;2023-08-24T10:24:22;5.03;;;2.92;;
33268;SDS011;19640;50.944;5.260;2023-08-24T10:26:47;5.10;;;3.00;;
33268;SDS011;19640;50.944;5.260;2023-08-24T10:29:15;3.35;;;2.75;;
33268;SDS011;19640;50.944;5.260;2023-08-24T10:31:41;5.97;;;3.53;;
33268;SDS011;19640;50.944;5.260;2023-08-24T10:34:09;4.90;;;3.60;;
33268;SDS011;19640;50.944;5.260;2023-08-24T10:36:37;6.20;;;3.47;;
33268;SDS011;19640;50.944;5.260;2023-08-24T10:39:04;3.33;;;3.00;;
33268;SDS011;19640;50.944;5.260;2023-08-24T10:41:45;6.47;;;3.38;;
33268;SDS011;19640;50.944;5.260;2023-08-24T10:46:44;5.57;;;2.90;;
33268;SDS011;19640;50.944;5.260;2023-08-24T10:49:31;5.28;;;2.95;;
33268;SDS011;19640;50.944;5.260;2023-08-24T10:51:57;9.93;;;2.85;;
33268;SDS011;19640;50.944;5.260;2023-08-24T10:54:44;9.85;;;4.28;;
33268;SDS011;19640;50.944;5.260;2023-08-24T10:57:21;5.60;;;3.95;;
33268;SDS011;19640;50.944;5.260;2023-08-24T11:00:09;6.85;;;4.05;;
33268;SDS011;19640;50.944;5.260;2023-08-24T11:02:44;7.20;;;3.90;;
33268;SDS011;19640;50.944;5.260;2023-08-24T11:05:15;5.30;;;3.88;;
33268;SDS011;19640;50.944;5.260;2023-08-24T11:07:59;15.15;;;4.40;;
33268;SDS011;19640;50.944;5.260;2023-08-24T11:13:08;7.00;;;4.22;;
33268;SDS011;19640;50.944;5.260;2023-08-24T11:15:42;6.53;;;3.70;;
33268;SDS011;19640;50.944;5.260;2023-08-24T11:20:44;6.05;;;4.13;;
33268;SDS011;19640;50.944;5.260;2023-08-24T11:23:12;9.82;;;5.40;;
33268;SDS011;19640;50.944;5.260;2023-08-24T11:25:38;7.70;;;5.45;;
33268;SDS011;19640;50.944;5.260;2023-08-24T11:28:04;5.80;;;4.57;;
33268;SDS011;19640;50.944;5.260;2023-08-24T11:30:31;6.30;;;4.70;;
33268;SDS011;19640;50.944;5.260;2023-08-24T11:32:58;7.65;;;4.85;;
33268;SDS011;19640;50.944;5.260;2023-08-24T11:35:24;7.97;;;5.20;;
33268;SDS011;19640;50.944;5.260;2023-08-24T11:37:52;6.93;;;5.60;;
33268;SDS011;19640;50.944;5.260;2023-08-24T11:40:18;6.88;;;5.43;;
33268;SDS011;19640;50.944;5.260;2023-08-24T11:42:53;6.68;;;5.28;;
33268;SDS011;19640;50.944;5.260;2023-08-24T11:45:20;7.32;;;4.57;;
33268;SDS011;19640;50.944;5.260;2023-08-24T11:47:47;5.47;;;4.63;;
33268;SDS011;19640;50.944;5.260;2023-08-24T11:50:13;6.40;;;5.05;;
33268;SDS011;19640;50.944;5.260;2023-08-24T11:52:39;7.85;;;5.32;;
33268;SDS011;19640;50.944;5.260;2023-08-24T11:55:06;7.53;;;5.45;;
33268;SDS011;19640;50.944;5.260;2023-08-24T11:57:33;7.18;;;5.00;;
33268;SDS011;19640;50.944;5.260;2023-08-24T11:59:59;5.38;;;4.88;;
33268;SDS011;19640;50.944;5.260;2023-08-24T12:02:26;5.60;;;4.75;;
33268;SDS011;19640;50.944;5.260;2023-08-24T12:04:52;5.75;;;4.93;;
33268;SDS011;19640;50.944;5.260;2023-08-24T12:07:18;7.53;;;5.35;;
33268;SDS011;19640;50.944;5.260;2023-08-24T12:09:45;7.20;;;4.57;;
33268;SDS011;19640;50.944;5.260;2023-08-24T12:12:15;5.57;;;5.07;;
33268;SDS011;19640;50.944;5.260;2023-08-24T12:14:42;7.18;;;4.43;;
33268;SDS011;19640;50.944;5.260;2023-08-24T12:17:12;6.70;;;4.88;;
33268;SDS011;19640;50.944;5.260;2023-08-24T12:19:45;9.05;;;5.30;;
33268;SDS011;19640;50.944;5.260;2023-08-24T12:22:20;8.18;;;5.53;;
33268;SDS011;19640;50.944;5.260;2023-08-24T12:24:47;12.27;;;4.90;;
33268;SDS011;19640;50.944;5.260;2023-08-24T12:29:47;4.93;;;4.03;;
33268;SDS011;19640;50.944;5.260;2023-08-24T12:32:14;6.72;;;4.70;;
33268;SDS011;19640;50.944;5.260;2023-08-24T12:34:48;4.20;;;3.60;;
33268;SDS011;19640;50.944;5.260;2023-08-24T12:37:16;4.30;;;3.38;;
33268;SDS011;19640;50.944;5.260;2023-08-24T12:39:42;4.50;;;3.40;;
33268;SDS011;19640;50.944;5.260;2023-08-24T12:42:08;3.75;;;3.20;;
33268;SDS011;19640;50.944;5.260;2023-08-24T12:44:34;3.83;;;2.90;;
33268;SDS011;19640;50.944;5.260;2023-08-24T12:47:01;7.13;;;3.22;;
33268;SDS011;19640;50.944;5.260;2023-08-24T12:49:28;4.97;;;2.92;;
33268;SDS011;19640;50.944;5.260;2023-08-24T12:51:54;3.83;;;3.28;;
33268;SDS011;19640;50.944;5.260;2023-08-24T12:54:19;8.35;;;3.38;;
33268;SDS011;19640;50.944;5.260;2023-08-24T12:56:45;4.53;;;3.85;;
33268;SDS011;19640;50.944;5.260;2023-08-24T12:59:11;6.00;;;4.18;;
33268;SDS011;19640;50.944;5.260;2023-08-24T13:01:37;5.97;;;3.42;;
33268;SDS011;19640;50.944;5.260;2023-08-24T13:04:03;5.80;;;3.45;;
33268;SDS011;19640;50.944;5.260;2023-08-24T13:06:30;6.57;;;4.38;;
33268;SDS011;19640;50.944;5.260;2023-08-24T13:08:56;7.18;;;3.83;;
33268;SDS011;19640;50.944;5.260;2023-08-24T13:11:22;7.53;;;4.57;;
33268;SDS011;19640;50.944;5.260;2023-08-24T13:13:48;6.18;;;3.97;;
33268;SDS011;19640;50.944;5.260;2023-08-24T13:16:14;7.25;;;4.32;;
33268;SDS011;19640;50.944;5.260;2023-08-24T13:18:40;6.68;;;4.18;;
33268;SDS011;19640;50.944;5.260;2023-08-24T13:21:06;10.38;;;4.38;;
33268;SDS011;19640;50.944;5.260;2023-08-24T13:23:32;7.65;;;3.78;;
33268;SDS011;19640;50.944;5.260;2023-08-24T13:25:58;5.97;;;4.07;;
33268;SDS011;19640;50.944;5.260;2023-08-24T13:28:24;6.55;;;4.15;;
33268;SDS011;19640;50.944;5.260;2023-08-24T13:30:50;7.80;;;4.03;;
33268;SDS011;19640;50.944;5.260;2023-08-24T13:33:16;4.47;;;3.17;;
33268;SDS011;19640;50.944;5.260;2023-08-24T13:35:43;4.53;;;3.13;;
33268;SDS011;19640;50.944;5.260;2023-08-24T13:38:09;4.63;;;2.80;;
33268;SDS011;19640;50.944;5.260;2023-08-24T13:40:34;6.40;;;3.40;;
33268;SDS011;19640;50.944;5.260;2023-08-24T13:43:00;6.78;;;2.53;;
33268;SDS011;19640;50.944;5.260;2023-08-24T13:45:26;4.85;;;2.72;;
33268;SDS011;19640;50.944;5.260;2023-08-24T13:47:51;5.63;;;2.55;;
33268;SDS011;19640;50.944;5.260;2023-08-24T13:50:17;2.78;;;1.92;;
33268;SDS011;19640;50.944;5.260;2023-08-24T13:52:43;4.22;;;2.35;;
33268;SDS011;19640;50.944;5.260;2023-08-24T13:55:09;6.00;;;1.85;;
33268;SDS011;19640;50.944;5.260;2023-08-24T13:57:35;3.33;;;2.00;;
33268;SDS011;19640;50.944;5.260;2023-08-24T14:00:00;3.28;;;1.70;;
33268;SDS011;19640;50.944;5.260;2023-08-24T14:02:28;2.30;;;1.80;;
33268;SDS011;19640;50.944;5.260;2023-08-24T14:04:54;3.65;;;1.60;;
33268;SDS011;19640;50.944;5.260;2023-08-24T14:07:20;3.78;;;1.98;;
33268;SDS011;19640;50.944;5.260;2023-08-24T14:09:46;3.08;;;1.60;;
33268;SDS011;19640;50.944;5.260;2023-08-24T14:12:11;3.95;;;1.85;;
33268;SDS011;19640;50.944;5.260;2023-08-24T14:14:37;4.03;;;1.50;;
33268;SDS011;19640;50.944;5.260;2023-08-24T14:17:03;2.50;;;1.60;;
33268;SDS011;19640;50.944;5.260;2023-08-24T14:19:28;4.25;;;1.40;;
33268;SDS011;19640;50.944;5.260;2023-08-24T14:21:54;2.85;;;1.20;;
33268;SDS011;19640;50.944;5.260;2023-08-24T14:24:20;4.75;;;1.45;;
33268;SDS011;19640;50.944;5.260;2023-08-24T14:26:46;1.63;;;1.10;;
33268;SDS011;19640;50.944;5.260;2023-08-24T14:29:12;2.45;;;1.35;;
33268;SDS011;19640;50.944;5.260;2023-08-24T14:31:40;2.42;;;1.25;;
33268;SDS011;19640;50.944;5.260;2023-08-24T14:34:06;2.15;;;1.42;;
33268;SDS011;19640;50.944;5.260;2023-08-24T14:36:32;6.10;;;1.30;;
33268;SDS011;19640;50.944;5.260;2023-08-24T14:38:58;2.22;;;1.10;;
33268;SDS011;19640;50.944;5.260;2023-08-24T14:41:24;3.03;;;1.17;;
33268;SDS011;19640;50.944;5.260;2023-08-24T14:43:49;2.42;;;0.95;;
33268;SDS011;19640;50.944;5.260;2023-08-24T14:46:15;3.63;;;1.23;;
33268;SDS011;19640;50.944;5.260;2023-08-24T14:48:41;4.50;;;1.63;;
33268;SDS011;19640;50.944;5.260;2023-08-24T14:51:07;1.95;;;1.30;;
33268;SDS011;19640;50.944;5.260;2023-08-24T14:53:33;3.17;;;1.10;;
33268;SDS011;19640;50.944;5.260;2023-08-24T14:55:59;3.15;;;1.30;;
33268;SDS011;19640;50.944;5.260;2023-08-24T14:58:26;2.78;;;1.30;;
33268;SDS011;19640;50.944;5.260;2023-08-24T15:00:52;2.38;;;1.10;;
33268;SDS011;19640;50.944;5.260;2023-08-24T15:03:22;1.58;;;1.00;;
33268;SDS011;19640;50.944;5.260;2023-08-24T15:05:58;3.13;;;1.50;;